Kristin D — C6XA6 — position and weather

sailwx.info

Track history (hours):
 
Tides and Currents Weather Stations Pressure Air Temp Water Temp Dewpoint Dewpoint Depression Visibility Wind Speed Wind Dir Waves Ship Positions

Kristin D

Last reported at 2017-Aug-19 20:26 UTC. Time now 2017-Aug-19 20:27 UTC.
Position N 53°21' W 006°13'.

Length 90 m; draft 4 m.

Type: Cargo ship. MMSI: 311003700.

Date/timePositionNaut miles runAvg speedWind from/ knotsBaromVisibWave heightAir tempDewpointWater temp
2017-Aug-19 20:26N 53°21' W 006°13'41 1.1
2017-Aug-18 07:08N 52°42' W 005°53'1 8.5
2017-Aug-18 07:00N 52°40' W 005°53'4 8.7
2017-Aug-18 06:30N 52°36' W 005°52'5 9.2
2017-Aug-18 06:00N 52°32' W 005°51'5 9.7
2017-Aug-18 05:30N 52°27' W 005°51'510.2
2017-Aug-18 05:00N 52°22' W 005°51'612.4
2017-Aug-18 04:30N 52°15' W 005°50'612.5
2017-Aug-18 04:00N 52°09' W 005°49'713.8
2017-Aug-18 03:31N 52°02' W 005°49'3013.3
2017-Aug-18 01:16N 51°33' W 005°50'312.3
2017-Aug-18 01:00N 51°29' W 005°50'4912.5
2017-Aug-17 21:06N 50°40' W 005°52'312.6
2017-Aug-17 20:53N 50°38' W 005°52'512.5
2017-Aug-17 20:27N 50°32' W 005°52'612.6
2017-Aug-17 20:00N 50°27' W 005°52'612.6
2017-Aug-17 19:30N 50°20' W 005°52'612.3
2017-Aug-17 19:00N 50°14' W 005°52'711.9
2017-Aug-17 18:27N 50°08' W 005°52'511.9
2017-Aug-17 18:00N 50°02' W 005°52'4910.7
2017-Aug-17 13:27N 49°59' W 004°36'510.5
2017-Aug-17 13:00N 49°60' W 004°29'610.8
2017-Aug-17 12:27N 50°01' W 004°20'510.9
2017-Aug-17 12:00N 50°02' W 004°12'511.2
2017-Aug-17 11:30N 50°03' W 004°04'611.3
2017-Aug-17 11:00N 50°04' W 003°55'611.5
2017-Aug-17 10:30N 50°05' W 003°46'611.9
2017-Aug-17 10:00N 50°06' W 003°37'612.0
2017-Aug-17 09:30N 50°07' W 003°28'612.4
2017-Aug-17 09:00N 50°08' W 003°19'612.5
2017-Aug-17 08:30N 50°10' W 003°09'612.6
2017-Aug-17 08:00N 50°11' W 002°59'612.4
2017-Aug-17 07:29N 50°12' W 002°49'612.1
2017-Aug-17 07:00N 50°13' W 002°41'38 9.8
2017-Aug-17 03:09N 50°20' W 001°42'4911.3
2017-Aug-16 22:50N 50°29' W 000°27'413.8
2017-Aug-16 22:30N 50°30' W 000°20'714.0
2017-Aug-16 22:00N 50°31' W 000°09'714.0
2017-Aug-16 21:31N 50°33' E 000°02'713.9
2017-Aug-16 20:58N 50°35' E 000°13'613.7
2017-Aug-16 20:30N 50°37' E 000°23'713.4
2017-Aug-16 20:00N 50°38' E 000°33'612.8
2017-Aug-16 19:30N 50°42' E 000°41'612.4
2017-Aug-16 19:00N 50°45' E 000°49'711.7
2017-Aug-16 18:25N 50°49' E 000°58'511.3
2017-Aug-16 18:00N 50°52' E 001°04'611.1
2017-Aug-16 17:27N 50°56' E 001°12'511.0
2017-Aug-16 16:59N 50°60' E 001°18'511.1
2017-Aug-16 16:30N 51°03' E 001°24'612.0
2017-Aug-16 16:00N 51°07' E 001°32'612.9
2017-Aug-16 15:30N 51°11' E 001°40'613.0
2017-Aug-16 15:01N 51°16' E 001°46'713.8
2017-Aug-16 14:31N 51°22' E 001°51'713.7
2017-Aug-16 14:00N 51°28' E 001°57'713.4
2017-Aug-16 13:30N 51°33' E 002°04'713.1
2017-Aug-16 13:00N 51°38' E 002°11'813.0
2017-Aug-16 12:24N 51°44' E 002°19'512.6
2017-Aug-16 11:58N 51°48' E 002°25'612.3
2017-Aug-16 11:30N 51°52' E 002°31'611.9
2017-Aug-16 11:00N 51°57' E 002°37'611.7
2017-Aug-16 10:30N 52°01' E 002°43'611.4
2017-Aug-16 10:00N 52°06' E 002°49'1111.0
2017-Aug-16 08:58N 52°15' E 003°00'810.9
2017-Aug-16 08:15N 52°21' E 003°08'311.1
2017-Aug-16 08:01N 52°23' E 003°11'611.2
2017-Aug-16 07:29N 52°28' E 003°17'611.4
2017-Aug-16 06:59N 52°32' E 003°23'712.0
2017-Aug-16 06:24N 52°38' E 003°30'612.5
2017-Aug-16 05:57N 52°42' E 003°37'612.9
2017-Aug-16 05:30N 52°46' E 003°43'613.0
2017-Aug-16 05:00N 52°51' E 003°50'713.2
2017-Aug-16 04:30N 52°55' E 003°58'713.2
2017-Aug-16 04:00N 53°00' E 004°05'713.1
2017-Aug-16 03:30N 53°05' E 004°13'613.1
2017-Aug-16 03:00N 53°10' E 004°21'712.8
2017-Aug-16 02:29N 53°15' E 004°26'612.5
2017-Aug-16 01:58N 53°21' E 004°32'612.0
2017-Aug-16 01:28N 53°26' E 004°37'510.8
2017-Aug-16 01:00N 53°29' E 004°44'611.0
2017-Aug-16 00:30N 53°31' E 004°53'510.7
2017-Aug-16 00:01N 53°33' E 005°01'3111.2
2017-Aug-15 21:13N 53°43' E 005°50'3410.1
2017-Aug-15 17:53N 53°32' E 006°44'514.0
2017-Aug-15 17:30N 53°28' E 006°51'613.0
2017-Aug-15 17:00N 53°23' E 006°58'510.3
2017-Aug-15 16:30N 53°19' E 007°03'5 5.7
2017-Aug-15 15:37N 53°20' E 007°12'0 0.9
2017-Aug-15 15:30N 53°20' E 007°12'0 0.0
2017-Aug-15 14:17N 53°20' E 007°12'0 0.0
2017-Aug-15 13:08N 53°20' E 007°12'0 0.0
2017-Aug-15 12:47N 53°20' E 007°12'0 0.0
2017-Aug-15 12:29N 53°20' E 007°12'0 0.0
2017-Aug-15 11:53N 53°20' E 007°12'0 0.0
2017-Aug-15 11:11N 53°20' E 007°12'0 0.0
2017-Aug-15 10:59N 53°20' E 007°12'0 0.0
2017-Aug-15 09:02N 53°20' E 007°12'0 0.0
2017-Aug-15 08:56N 53°20' E 007°12'0 0.0
2017-Aug-15 07:11N 53°20' E 007°12'0 0.0
2017-Aug-15 06:56N 53°20' E 007°12'0 0.0
2017-Aug-15 06:17N 53°20' E 007°12'0 0.0
2017-Aug-15 05:59N 53°20' E 007°12'0 0.0
2017-Aug-15 05:23N 53°20' E 007°12'0 0.0
2017-Aug-15 04:14N 53°20' E 007°12'0 0.0
2017-Aug-15 03:59N 53°20' E 007°12'0 0.0
2017-Aug-15 03:23N 53°20' E 007°12'0 0.0
2017-Aug-15 02:29N 53°20' E 007°12'0 0.0
2017-Aug-15 01:59N 53°20' E 007°12'0 0.0
2017-Aug-15 01:17N 53°20' E 007°12'0 0.0
2017-Aug-15 00:59N 53°20' E 007°12'0 0.0
2017-Aug-15 00:26N 53°20' E 007°12'0 0.0
2017-Aug-14 23:59N 53°20' E 007°12'0 0.0
2017-Aug-14 23:29N 53°20' E 007°12'0 0.0
2017-Aug-14 22:53N 53°20' E 007°12'0 0.0
2017-Aug-14 22:26N 53°20' E 007°12'0 0.0
2017-Aug-14 21:56N 53°20' E 007°12'0 0.0
2017-Aug-14 21:26N 53°20' E 007°12'0 0.0
2017-Aug-14 20:50N 53°20' E 007°12'0 0.0
2017-Aug-14 20:29N 53°20' E 007°12'0 0.0
2017-Aug-14 19:59N 53°20' E 007°12'0 0.0
2017-Aug-14 19:26N 53°20' E 007°12'0 0.0
2017-Aug-14 18:59N 53°20' E 007°12'0 0.0
2017-Aug-14 18:22N 53°20' E 007°12'0 0.0
2017-Aug-14 17:55N 53°20' E 007°12'0 0.0
2017-Aug-14 15:58N 53°20' E 007°12'0 0.0
2017-Aug-14 14:55N 53°20' E 007°12'0 0.0
2017-Aug-14 14:01N 53°20' E 007°12'0 0.0
2017-Aug-14 13:43N 53°20' E 007°12'0 0.0
2017-Aug-14 13:25N 53°20' E 007°12'0 0.1
2017-Aug-14 12:28N 53°20' E 007°12'0 0.3
2017-Aug-14 11:28N 53°20' E 007°12'0 0.0
2017-Aug-14 10:55N 53°20' E 007°12'0 0.0
2017-Aug-14 10:28N 53°20' E 007°12'0 0.0
2017-Aug-14 09:46N 53°20' E 007°12'0 0.0
2017-Aug-14 09:28N 53°20' E 007°12'0 0.0
2017-Aug-14 08:55N 53°20' E 007°12'0 0.0
2017-Aug-14 08:22N 53°20' E 007°12'0 0.0
2017-Aug-14 07:58N 53°20' E 007°12'0 0.0
2017-Aug-14 07:28N 53°20' E 007°12'0 0.0
2017-Aug-14 06:55N 53°20' E 007°12'0 0.0
2017-Aug-14 05:22N 53°20' E 007°12'0 0.0
2017-Aug-14 04:55N 53°20' E 007°12'0 0.0
2017-Aug-13 19:28N 53°20' E 007°12'0 0.0
2017-Aug-13 18:52N 53°20' E 007°12'0 0.0
2017-Aug-13 18:28N 53°20' E 007°12'0 0.0
2017-Aug-13 17:58N 53°20' E 007°12'0 0.0
2017-Aug-13 17:25N 53°20' E 007°12'0 0.0
2017-Aug-13 16:55N 53°20' E 007°12'0 0.0
2017-Aug-13 16:22N 53°20' E 007°12'0 0.0
2017-Aug-13 15:55N 53°20' E 007°12'0 0.0
2017-Aug-13 15:10N 53°20' E 007°12'0 0.0
2017-Aug-13 14:58N 53°20' E 007°12'0 0.0
2017-Aug-13 14:22N 53°20' E 007°12'0 0.0
2017-Aug-13 13:58N 53°20' E 007°12'0 0.0
2017-Aug-13 13:25N 53°20' E 007°12'0 0.0
2017-Aug-13 12:49N 53°20' E 007°12'0 0.0
2017-Aug-13 12:28N 53°20' E 007°12'0 0.0
2017-Aug-13 11:58N 53°20' E 007°12'0 0.0
2017-Aug-13 11:25N 53°20' E 007°12'0 0.0
2017-Aug-13 10:58N 53°20' E 007°12'0 0.0
2017-Aug-13 10:25N 53°20' E 007°12'0 0.0
2017-Aug-13 10:01N 53°20' E 007°12'0 0.0
2017-Aug-13 09:31N 53°20' E 007°12'0 0.0
2017-Aug-13 08:57N 53°20' E 007°12'0 0.0
2017-Aug-13 08:30N 53°20' E 007°12'0 0.0
2017-Aug-12 19:24N 53°20' E 007°12'0 0.0
2017-Aug-12 19:00N 53°20' E 007°12'0 0.0
2017-Aug-12 18:30N 53°20' E 007°12'0 0.0
2017-Aug-12 18:00N 53°20' E 007°12'0 0.0
2017-Aug-12 17:30N 53°20' E 007°12'0 0.0
2017-Aug-12 17:00N 53°20' E 007°12'0 0.0
2017-Aug-12 16:27N 53°20' E 007°12'0 0.0
2017-Aug-12 16:00N 53°20' E 007°12'0 0.0
2017-Aug-12 15:27N 53°20' E 007°12'0 0.0
2017-Aug-12 15:00N 53°20' E 007°12'0 0.0
2017-Aug-12 14:30N 53°20' E 007°12'0 0.0
2017-Aug-12 14:00N 53°20' E 007°12'0 0.0
2017-Aug-12 13:30N 53°20' E 007°12'0 0.0
2017-Aug-12 12:54N 53°20' E 007°12'0 0.0
2017-Aug-12 12:30N 53°20' E 007°12'0 0.9
2017-Aug-12 12:00N 53°20' E 007°11'2 3.3
2017-Aug-12 11:30N 53°20' E 007°09'5 9.7
2017-Aug-12 11:00N 53°19' E 007°01'5 9.5
2017-Aug-12 10:30N 53°24' E 006°57'63 9.6
2017-Aug-12 03:59N 53°30' E 005°13'4 8.9
2017-Aug-12 03:30N 53°29' E 005°06'5 9.1
2017-Aug-12 03:00N 53°27' E 004°59'6 9.0
2017-Aug-12 02:22N 53°25' E 004°50'5 9.0
2017-Aug-12 01:50N 53°23' E 004°43'21 9.3
2017-Aug-11 23:36N 53°05' E 004°26'2 9.3
2017-Aug-11 23:25N 53°03' E 004°25'5 9.3
2017-Aug-11 22:50N 52°58' E 004°20'3 9.5
2017-Aug-11 22:30N 52°55' E 004°18'5 9.6
2017-Aug-11 22:00N 52°51' E 004°14'611.1
2017-Aug-11 21:30N 52°47' E 004°10'611.7
2017-Aug-11 20:58N 52°41' E 004°04'612.3
2017-Aug-11 20:29N 52°36' E 003°59'612.3
2017-Aug-11 20:00N 52°31' E 003°55'712.8
2017-Aug-11 19:30N 52°24' E 003°53'612.8
2017-Aug-11 19:00N 52°18' E 003°52'713.4
2017-Aug-11 18:30N 52°11' E 003°54'612.2
2017-Aug-11 18:00N 52°05' E 003°55'5 9.6
2017-Aug-11 17:31N 52°01' E 003°58'611.7
2017-Aug-11 17:00N 51°58' E 004°06'510.1
2017-Aug-11 16:30N 51°55' E 004°13'2 3.7
2017-Aug-11 16:00N 51°54' E 004°14'0 0.0
2017-Aug-11 15:30N 51°54' E 004°14'0 0.0
2017-Aug-11 15:00N 51°54' E 004°14'0 0.0
2017-Aug-11 14:00N 51°54' E 004°14'0 0.0
2017-Aug-11 13:30N 51°54' E 004°14'0 0.0
2017-Aug-11 13:00N 51°54' E 004°14'0 0.0
2017-Aug-11 12:30N 51°54' E 004°14'0 0.0
2017-Aug-11 12:00N 51°54' E 004°14'0 0.0
2017-Aug-11 11:30N 51°54' E 004°14'0 0.0
2017-Aug-11 11:00N 51°54' E 004°14'0 0.0
2017-Aug-11 10:30N 51°54' E 004°14'0 0.0
2017-Aug-11 10:00N 51°54' E 004°14'0 0.0
2017-Aug-11 09:30N 51°54' E 004°14'0 0.0
2017-Aug-11 09:01N 51°54' E 004°14'0 0.0
2017-Aug-11 08:31N 51°54' E 004°14'0 0.0
2017-Aug-11 08:01N 51°54' E 004°14'0 0.0
2017-Aug-11 07:30N 51°54' E 004°14'0 0.0
2017-Aug-11 07:00N 51°54' E 004°14'2 3.7
2017-Aug-11 06:30N 51°55' E 004°13'3 5.6
2017-Aug-11 06:00N 51°57' E 004°09'0 0.0
2017-Aug-11 05:30N 51°57' E 004°09'0 0.0
2017-Aug-11 05:00N 51°57' E 004°09'0 0.0
2017-Aug-11 04:30N 51°57' E 004°09'0 0.0
2017-Aug-11 04:00N 51°57' E 004°09'0 0.0
2017-Aug-11 03:30N 51°57' E 004°09'0 0.0
2017-Aug-11 03:00N 51°57' E 004°09'0 0.3
2017-Aug-11 02:30N 51°57' E 004°09'4 7.4
2017-Aug-11 02:00N 51°54' E 004°14'1 1.5
2017-Aug-11 01:30N 51°54' E 004°14'0 0.0
2017-Aug-11 01:00N 51°54' E 004°14'1 1.9
2017-Aug-11 00:30N 51°55' E 004°14'4 7.3
2017-Aug-11 00:00N 51°57' E 004°09'4 8.7
2017-Aug-10 23:30N 51°59' E 004°03'4 8.1
2017-Aug-10 23:00N 51°60' E 003°56'4 8.1
2017-Aug-10 22:30N 52°00' E 003°50'60 8.1
2017-Aug-10 15:09N 51°34' E 002°23'211.3
2017-Aug-10 14:59N 51°33' E 002°21'511.0
2017-Aug-10 14:30N 51°28' E 002°16'510.6
2017-Aug-10 14:00N 51°24' E 002°12'510.6
2017-Aug-10 13:30N 51°19' E 002°08'510.7
2017-Aug-10 13:01N 51°14' E 002°03'510.6
2017-Aug-10 12:30N 51°11' E 001°57'510.0
2017-Aug-10 12:00N 51°08' E 001°51'5 9.6
2017-Aug-10 11:30N 51°05' E 001°45'510.4
2017-Aug-10 11:00N 51°01' E 001°39'510.2
2017-Aug-10 10:29N 50°57' E 001°34'5 9.8
2017-Aug-10 10:00N 50°53' E 001°29'55 9.7
2017-Aug-10 04:21N 50°24' E 000°15'410.2
2017-Aug-10 04:00N 50°23' E 000°10'510.2
2017-Aug-10 03:30N 50°22' E 000°02'510.3
2017-Aug-10 03:00N 50°21' W 000°06'510.3
2017-Aug-10 02:30N 50°20' W 000°13'4911.5
2017-Aug-09 22:15N 50°13' W 001°30'614.7
2017-Aug-09 21:51N 50°13' W 001°39'515.2
2017-Aug-09 21:30N 50°12' W 001°47'815.5
2017-Aug-09 21:00N 50°12' W 001°59'2514.8
2017-Aug-09 19:20N 50°08' W 002°37'513.8
2017-Aug-09 19:00N 50°08' W 002°44'713.5
2017-Aug-09 18:30N 50°07' W 002°55'713.1
2017-Aug-09 18:00N 50°06' W 003°05'612.9
2017-Aug-09 17:30N 50°05' W 003°15'612.5
2017-Aug-09 17:00N 50°04' W 003°24'612.2
2017-Aug-09 16:30N 50°03' W 003°34'611.5
2017-Aug-09 16:00N 50°03' W 003°43'611.2
2017-Aug-09 15:30N 50°02' W 003°51'611.3
2017-Aug-09 15:00N 50°01' W 004°00'611.4
2017-Aug-09 14:30N 50°00' W 004°09'611.4
2017-Aug-09 14:00N 49°60' W 004°18'611.4
2017-Aug-09 13:30N 49°58' W 004°26'611.4
2017-Aug-09 13:00N 49°56' W 004°35'611.2
2017-Aug-09 12:29N 49°55' W 004°44'811.1
2017-Aug-09 11:44N 49°54' W 004°56'311.2
2017-Aug-09 11:26N 49°54' W 005°02'44 9.0
2017-Aug-09 06:31N 50°18' W 005°59'5 9.8
2017-Aug-09 06:04N 50°22' W 005°56'110.1
2017-Aug-09 06:00N 50°22' W 005°55'510.2
2017-Aug-09 05:30N 50°26' W 005°49'510.2
2017-Aug-09 05:00N 50°29' W 005°43'510.4
2017-Aug-09 04:31N 50°32' W 005°36'510.5
2017-Aug-09 04:01N 50°35' W 005°30'510.6
2017-Aug-09 03:31N 50°39' W 005°24'510.8
2017-Aug-09 03:01N 50°42' W 005°17'510.9
2017-Aug-09 02:31N 50°46' W 005°10'611.3
2017-Aug-09 02:01N 50°49' W 005°04'611.5
2017-Aug-09 01:30N 50°53' W 004°56'611.8
2017-Aug-09 01:00N 50°57' W 004°49'612.0
2017-Aug-09 00:31N 51°01' W 004°42'612.8
2017-Aug-09 00:00N 51°05' W 004°34'713.0
2017-Aug-08 23:30N 51°09' W 004°26'713.9
2017-Aug-08 22:58N 51°14' W 004°17'714.3
2017-Aug-08 22:29N 51°16' W 004°07'714.9
2017-Aug-08 21:59N 51°18' W 003°55'2914.3
2017-Aug-08 19:57N 51°24' W 003°10'612.0
2017-Aug-08 19:27N 51°29' W 003°04'510.5
2017-Aug-08 19:00N 51°32' W 002°58'1 2.5
2017-Aug-08 18:24N 51°33' W 002°59'0 0.4
2017-Aug-08 17:50N 51°33' W 002°59'0 0.0
2017-Aug-08 15:28N 51°33' W 002°59'0 0.0
2017-Aug-08 14:58N 51°33' W 002°59'0 0.0
2017-Aug-08 14:22N 51°33' W 002°59'0 0.0
2017-Aug-08 13:58N 51°33' W 002°59'0 0.0
2017-Aug-08 13:22N 51°33' W 002°59'0 0.0
2017-Aug-08 08:10N 51°33' W 002°59'0 0.0
2017-Aug-08 07:52N 51°33' W 002°59'0 0.0
2017-Aug-08 07:28N 51°33' W 002°59'  
Track history (hours):
 
Tides and Currents Weather Stations Pressure Air Temp Water Temp Dewpoint Dewpoint Depression Visibility Wind Speed Wind Dir Waves Ship Positions

Kristin D

Last reported at 2017-Aug-19 20:26 UTC. Time now 2017-Aug-19 20:27 UTC.
Position N 53°21' W 006°13'.

Length 90 m; draft 4 m.

Type: Cargo ship. MMSI: 311003700.

Date/timePositionNaut miles runAvg speedWind from/ knotsBaromVisibWave heightAir tempDewpointWater temp
2017-Aug-19 20:26N 53°21' W 006°13'41 1.1
2017-Aug-18 07:08N 52°42' W 005°53'1 8.5
2017-Aug-18 07:00N 52°40' W 005°53'4 8.7
2017-Aug-18 06:30N 52°36' W 005°52'5 9.2
2017-Aug-18 06:00N 52°32' W 005°51'5 9.7
2017-Aug-18 05:30N 52°27' W 005°51'510.2
2017-Aug-18 05:00N 52°22' W 005°51'612.4
2017-Aug-18 04:30N 52°15' W 005°50'612.5
2017-Aug-18 04:00N 52°09' W 005°49'713.8
2017-Aug-18 03:31N 52°02' W 005°49'3013.3
2017-Aug-18 01:16N 51°33' W 005°50'312.3
2017-Aug-18 01:00N 51°29' W 005°50'4912.5
2017-Aug-17 21:06N 50°40' W 005°52'312.6
2017-Aug-17 20:53N 50°38' W 005°52'512.5
2017-Aug-17 20:27N 50°32' W 005°52'612.6
2017-Aug-17 20:00N 50°27' W 005°52'612.6
2017-Aug-17 19:30N 50°20' W 005°52'612.3
2017-Aug-17 19:00N 50°14' W 005°52'711.9
2017-Aug-17 18:27N 50°08' W 005°52'511.9
2017-Aug-17 18:00N 50°02' W 005°52'4910.7
2017-Aug-17 13:27N 49°59' W 004°36'510.5
2017-Aug-17 13:00N 49°60' W 004°29'610.8
2017-Aug-17 12:27N 50°01' W 004°20'510.9
2017-Aug-17 12:00N 50°02' W 004°12'511.2
2017-Aug-17 11:30N 50°03' W 004°04'611.3
2017-Aug-17 11:00N 50°04' W 003°55'611.5
2017-Aug-17 10:30N 50°05' W 003°46'611.9
2017-Aug-17 10:00N 50°06' W 003°37'612.0
2017-Aug-17 09:30N 50°07' W 003°28'612.4
2017-Aug-17 09:00N 50°08' W 003°19'612.5
2017-Aug-17 08:30N 50°10' W 003°09'612.6
2017-Aug-17 08:00N 50°11' W 002°59'612.4
2017-Aug-17 07:29N 50°12' W 002°49'612.1
2017-Aug-17 07:00N 50°13' W 002°41'38 9.8
2017-Aug-17 03:09N 50°20' W 001°42'4911.3
2017-Aug-16 22:50N 50°29' W 000°27'413.8
2017-Aug-16 22:30N 50°30' W 000°20'714.0
2017-Aug-16 22:00N 50°31' W 000°09'714.0
2017-Aug-16 21:31N 50°33' E 000°02'713.9
2017-Aug-16 20:58N 50°35' E 000°13'613.7
2017-Aug-16 20:30N 50°37' E 000°23'713.4
2017-Aug-16 20:00N 50°38' E 000°33'612.8
2017-Aug-16 19:30N 50°42' E 000°41'612.4
2017-Aug-16 19:00N 50°45' E 000°49'711.7
2017-Aug-16 18:25N 50°49' E 000°58'511.3
2017-Aug-16 18:00N 50°52' E 001°04'611.1
2017-Aug-16 17:27N 50°56' E 001°12'511.0
2017-Aug-16 16:59N 50°60' E 001°18'511.1
2017-Aug-16 16:30N 51°03' E 001°24'612.0
2017-Aug-16 16:00N 51°07' E 001°32'612.9
2017-Aug-16 15:30N 51°11' E 001°40'613.0
2017-Aug-16 15:01N 51°16' E 001°46'713.8
2017-Aug-16 14:31N 51°22' E 001°51'713.7
2017-Aug-16 14:00N 51°28' E 001°57'713.4
2017-Aug-16 13:30N 51°33' E 002°04'713.1
2017-Aug-16 13:00N 51°38' E 002°11'813.0
2017-Aug-16 12:24N 51°44' E 002°19'512.6
2017-Aug-16 11:58N 51°48' E 002°25'612.3
2017-Aug-16 11:30N 51°52' E 002°31'611.9
2017-Aug-16 11:00N 51°57' E 002°37'611.7
2017-Aug-16 10:30N 52°01' E 002°43'611.4
2017-Aug-16 10:00N 52°06' E 002°49'1111.0
2017-Aug-16 08:58N 52°15' E 003°00'810.9
2017-Aug-16 08:15N 52°21' E 003°08'311.1
2017-Aug-16 08:01N 52°23' E 003°11'611.2
2017-Aug-16 07:29N 52°28' E 003°17'611.4
2017-Aug-16 06:59N 52°32' E 003°23'712.0
2017-Aug-16 06:24N 52°38' E 003°30'612.5
2017-Aug-16 05:57N 52°42' E 003°37'612.9
2017-Aug-16 05:30N 52°46' E 003°43'613.0
2017-Aug-16 05:00N 52°51' E 003°50'713.2
2017-Aug-16 04:30N 52°55' E 003°58'713.2
2017-Aug-16 04:00N 53°00' E 004°05'713.1
2017-Aug-16 03:30N 53°05' E 004°13'613.1
2017-Aug-16 03:00N 53°10' E 004°21'712.8
2017-Aug-16 02:29N 53°15' E 004°26'612.5
2017-Aug-16 01:58N 53°21' E 004°32'612.0
2017-Aug-16 01:28N 53°26' E 004°37'510.8
2017-Aug-16 01:00N 53°29' E 004°44'611.0
2017-Aug-16 00:30N 53°31' E 004°53'510.7
2017-Aug-16 00:01N 53°33' E 005°01'3111.2
2017-Aug-15 21:13N 53°43' E 005°50'3410.1
2017-Aug-15 17:53N 53°32' E 006°44'514.0
2017-Aug-15 17:30N 53°28' E 006°51'613.0
2017-Aug-15 17:00N 53°23' E 006°58'510.3
2017-Aug-15 16:30N 53°19' E 007°03'5 5.7
2017-Aug-15 15:37N 53°20' E 007°12'0 0.9
2017-Aug-15 15:30N 53°20' E 007°12'0 0.0
2017-Aug-15 14:17N 53°20' E 007°12'0 0.0
2017-Aug-15 13:08N 53°20' E 007°12'0 0.0
2017-Aug-15 12:47N 53°20' E 007°12'0 0.0
2017-Aug-15 12:29N 53°20' E 007°12'0 0.0
2017-Aug-15 11:53N 53°20' E 007°12'0 0.0
2017-Aug-15 11:11N 53°20' E 007°12'0 0.0
2017-Aug-15 10:59N 53°20' E 007°12'0 0.0
2017-Aug-15 09:02N 53°20' E 007°12'0 0.0
2017-Aug-15 08:56N 53°20' E 007°12'0 0.0
2017-Aug-15 07:11N 53°20' E 007°12'0 0.0
2017-Aug-15 06:56N 53°20' E 007°12'0 0.0
2017-Aug-15 06:17N 53°20' E 007°12'0 0.0
2017-Aug-15 05:59N 53°20' E 007°12'0 0.0
2017-Aug-15 05:23N 53°20' E 007°12'0 0.0
2017-Aug-15 04:14N 53°20' E 007°12'0 0.0
2017-Aug-15 03:59N 53°20' E 007°12'0 0.0
2017-Aug-15 03:23N 53°20' E 007°12'0 0.0
2017-Aug-15 02:29N 53°20' E 007°12'0 0.0
2017-Aug-15 01:59N 53°20' E 007°12'0 0.0
2017-Aug-15 01:17N 53°20' E 007°12'0 0.0
2017-Aug-15 00:59N 53°20' E 007°12'0 0.0
2017-Aug-15 00:26N 53°20' E 007°12'0 0.0
2017-Aug-14 23:59N 53°20' E 007°12'0 0.0
2017-Aug-14 23:29N 53°20' E 007°12'0 0.0
2017-Aug-14 22:53N 53°20' E 007°12'0 0.0
2017-Aug-14 22:26N 53°20' E 007°12'0 0.0
2017-Aug-14 21:56N 53°20' E 007°12'0 0.0
2017-Aug-14 21:26N 53°20' E 007°12'0 0.0
2017-Aug-14 20:50N 53°20' E 007°12'0 0.0
2017-Aug-14 20:29N 53°20' E 007°12'0 0.0
2017-Aug-14 19:59N 53°20' E 007°12'0 0.0
2017-Aug-14 19:26N 53°20' E 007°12'0 0.0
2017-Aug-14 18:59N 53°20' E 007°12'0 0.0
2017-Aug-14 18:22N 53°20' E 007°12'0 0.0
2017-Aug-14 17:55N 53°20' E 007°12'0 0.0
2017-Aug-14 15:58N 53°20' E 007°12'0 0.0
2017-Aug-14 14:55N 53°20' E 007°12'0 0.0
2017-Aug-14 14:01N 53°20' E 007°12'0 0.0
2017-Aug-14 13:43N 53°20' E 007°12'0 0.0
2017-Aug-14 13:25N 53°20' E 007°12'0 0.1
2017-Aug-14 12:28N 53°20' E 007°12'0 0.3
2017-Aug-14 11:28N 53°20' E 007°12'0 0.0
2017-Aug-14 10:55N 53°20' E 007°12'0 0.0
2017-Aug-14 10:28N 53°20' E 007°12'0 0.0
2017-Aug-14 09:46N 53°20' E 007°12'0 0.0
2017-Aug-14 09:28N 53°20' E 007°12'0 0.0
2017-Aug-14 08:55N 53°20' E 007°12'0 0.0
2017-Aug-14 08:22N 53°20' E 007°12'0 0.0
2017-Aug-14 07:58N 53°20' E 007°12'0 0.0
2017-Aug-14 07:28N 53°20' E 007°12'0 0.0
2017-Aug-14 06:55N 53°20' E 007°12'0 0.0
2017-Aug-14 05:22N 53°20' E 007°12'0 0.0
2017-Aug-14 04:55N 53°20' E 007°12'0 0.0
2017-Aug-13 19:28N 53°20' E 007°12'0 0.0
2017-Aug-13 18:52N 53°20' E 007°12'0 0.0
2017-Aug-13 18:28N 53°20' E 007°12'0 0.0
2017-Aug-13 17:58N 53°20' E 007°12'0 0.0
2017-Aug-13 17:25N 53°20' E 007°12'0 0.0
2017-Aug-13 16:55N 53°20' E 007°12'0 0.0
2017-Aug-13 16:22N 53°20' E 007°12'0 0.0
2017-Aug-13 15:55N 53°20' E 007°12'0 0.0
2017-Aug-13 15:10N 53°20' E 007°12'0 0.0
2017-Aug-13 14:58N 53°20' E 007°12'0 0.0
2017-Aug-13 14:22N 53°20' E 007°12'0 0.0
2017-Aug-13 13:58N 53°20' E 007°12'0 0.0
2017-Aug-13 13:25N 53°20' E 007°12'0 0.0
2017-Aug-13 12:49N 53°20' E 007°12'0 0.0
2017-Aug-13 12:28N 53°20' E 007°12'0 0.0
2017-Aug-13 11:58N 53°20' E 007°12'0 0.0
2017-Aug-13 11:25N 53°20' E 007°12'0 0.0
2017-Aug-13 10:58N 53°20' E 007°12'0 0.0
2017-Aug-13 10:25N 53°20' E 007°12'0 0.0
2017-Aug-13 10:01N 53°20' E 007°12'0 0.0
2017-Aug-13 09:31N 53°20' E 007°12'0 0.0
2017-Aug-13 08:57N 53°20' E 007°12'0 0.0
2017-Aug-13 08:30N 53°20' E 007°12'0 0.0
2017-Aug-12 19:24N 53°20' E 007°12'0 0.0
2017-Aug-12 19:00N 53°20' E 007°12'0 0.0
2017-Aug-12 18:30N 53°20' E 007°12'0 0.0
2017-Aug-12 18:00N 53°20' E 007°12'0 0.0
2017-Aug-12 17:30N 53°20' E 007°12'0 0.0
2017-Aug-12 17:00N 53°20' E 007°12'0 0.0
2017-Aug-12 16:27N 53°20' E 007°12'0 0.0
2017-Aug-12 16:00N 53°20' E 007°12'0 0.0
2017-Aug-12 15:27N 53°20' E 007°12'0 0.0
2017-Aug-12 15:00N 53°20' E 007°12'0 0.0
2017-Aug-12 14:30N 53°20' E 007°12'0 0.0
2017-Aug-12 14:00N 53°20' E 007°12'0 0.0
2017-Aug-12 13:30N 53°20' E 007°12'0 0.0
2017-Aug-12 12:54N 53°20' E 007°12'0 0.0
2017-Aug-12 12:30N 53°20' E 007°12'0 0.9
2017-Aug-12 12:00N 53°20' E 007°11'2 3.3
2017-Aug-12 11:30N 53°20' E 007°09'5 9.7
2017-Aug-12 11:00N 53°19' E 007°01'5 9.5
2017-Aug-12 10:30N 53°24' E 006°57'63 9.6
2017-Aug-12 03:59N 53°30' E 005°13'4 8.9
2017-Aug-12 03:30N 53°29' E 005°06'5 9.1
2017-Aug-12 03:00N 53°27' E 004°59'6 9.0
2017-Aug-12 02:22N 53°25' E 004°50'5 9.0
2017-Aug-12 01:50N 53°23' E 004°43'21 9.3
2017-Aug-11 23:36N 53°05' E 004°26'2 9.3
2017-Aug-11 23:25N 53°03' E 004°25'5 9.3
2017-Aug-11 22:50N 52°58' E 004°20'3 9.5
2017-Aug-11 22:30N 52°55' E 004°18'5 9.6
2017-Aug-11 22:00N 52°51' E 004°14'611.1
2017-Aug-11 21:30N 52°47' E 004°10'611.7
2017-Aug-11 20:58N 52°41' E 004°04'612.3
2017-Aug-11 20:29N 52°36' E 003°59'612.3
2017-Aug-11 20:00N 52°31' E 003°55'712.8
2017-Aug-11 19:30N 52°24' E 003°53'612.8
2017-Aug-11 19:00N 52°18' E 003°52'713.4
2017-Aug-11 18:30N 52°11' E 003°54'612.2
2017-Aug-11 18:00N 52°05' E 003°55'5 9.6
2017-Aug-11 17:31N 52°01' E 003°58'611.7
2017-Aug-11 17:00N 51°58' E 004°06'510.1
2017-Aug-11 16:30N 51°55' E 004°13'2 3.7
2017-Aug-11 16:00N 51°54' E 004°14'0 0.0
2017-Aug-11 15:30N 51°54' E 004°14'0 0.0
2017-Aug-11 15:00N 51°54' E 004°14'0 0.0
2017-Aug-11 14:00N 51°54' E 004°14'0 0.0
2017-Aug-11 13:30N 51°54' E 004°14'0 0.0
2017-Aug-11 13:00N 51°54' E 004°14'0 0.0
2017-Aug-11 12:30N 51°54' E 004°14'0 0.0
2017-Aug-11 12:00N 51°54' E 004°14'0 0.0
2017-Aug-11 11:30N 51°54' E 004°14'0 0.0
2017-Aug-11 11:00N 51°54' E 004°14'0 0.0
2017-Aug-11 10:30N 51°54' E 004°14'0 0.0
2017-Aug-11 10:00N 51°54' E 004°14'0 0.0
2017-Aug-11 09:30N 51°54' E 004°14'0 0.0
2017-Aug-11 09:01N 51°54' E 004°14'0 0.0
2017-Aug-11 08:31N 51°54' E 004°14'0 0.0
2017-Aug-11 08:01N 51°54' E 004°14'0 0.0
2017-Aug-11 07:30N 51°54' E 004°14'0 0.0
2017-Aug-11 07:00N 51°54' E 004°14'2 3.7
2017-Aug-11 06:30N 51°55' E 004°13'3 5.6
2017-Aug-11 06:00N 51°57' E 004°09'0 0.0
2017-Aug-11 05:30N 51°57' E 004°09'0 0.0
2017-Aug-11 05:00N 51°57' E 004°09'0 0.0
2017-Aug-11 04:30N 51°57' E 004°09'0 0.0
2017-Aug-11 04:00N 51°57' E 004°09'0 0.0
2017-Aug-11 03:30N 51°57' E 004°09'0 0.0
2017-Aug-11 03:00N 51°57' E 004°09'0 0.3
2017-Aug-11 02:30N 51°57' E 004°09'4 7.4
2017-Aug-11 02:00N 51°54' E 004°14'1 1.5
2017-Aug-11 01:30N 51°54' E 004°14'0 0.0
2017-Aug-11 01:00N 51°54' E 004°14'1 1.9
2017-Aug-11 00:30N 51°55' E 004°14'4 7.3
2017-Aug-11 00:00N 51°57' E 004°09'4 8.7
2017-Aug-10 23:30N 51°59' E 004°03'4 8.1
2017-Aug-10 23:00N 51°60' E 003°56'4 8.1
2017-Aug-10 22:30N 52°00' E 003°50'60 8.1
2017-Aug-10 15:09N 51°34' E 002°23'211.3
2017-Aug-10 14:59N 51°33' E 002°21'511.0
2017-Aug-10 14:30N 51°28' E 002°16'510.6
2017-Aug-10 14:00N 51°24' E 002°12'510.6
2017-Aug-10 13:30N 51°19' E 002°08'510.7
2017-Aug-10 13:01N 51°14' E 002°03'510.6
2017-Aug-10 12:30N 51°11' E 001°57'510.0
2017-Aug-10 12:00N 51°08' E 001°51'5 9.6
2017-Aug-10 11:30N 51°05' E 001°45'510.4
2017-Aug-10 11:00N 51°01' E 001°39'510.2
2017-Aug-10 10:29N 50°57' E 001°34'5 9.8
2017-Aug-10 10:00N 50°53' E 001°29'55 9.7
2017-Aug-10 04:21N 50°24' E 000°15'410.2
2017-Aug-10 04:00N 50°23' E 000°10'510.2
2017-Aug-10 03:30N 50°22' E 000°02'510.3
2017-Aug-10 03:00N 50°21' W 000°06'510.3
2017-Aug-10 02:30N 50°20' W 000°13'4911.5
2017-Aug-09 22:15N 50°13' W 001°30'614.7
2017-Aug-09 21:51N 50°13' W 001°39'515.2
2017-Aug-09 21:30N 50°12' W 001°47'815.5
2017-Aug-09 21:00N 50°12' W 001°59'2514.8
2017-Aug-09 19:20N 50°08' W 002°37'513.8
2017-Aug-09 19:00N 50°08' W 002°44'713.5
2017-Aug-09 18:30N 50°07' W 002°55'713.1
2017-Aug-09 18:00N 50°06' W 003°05'612.9
2017-Aug-09 17:30N 50°05' W 003°15'612.5
2017-Aug-09 17:00N 50°04' W 003°24'612.2
2017-Aug-09 16:30N 50°03' W 003°34'611.5
2017-Aug-09 16:00N 50°03' W 003°43'611.2
2017-Aug-09 15:30N 50°02' W 003°51'611.3
2017-Aug-09 15:00N 50°01' W 004°00'611.4
2017-Aug-09 14:30N 50°00' W 004°09'611.4
2017-Aug-09 14:00N 49°60' W 004°18'611.4
2017-Aug-09 13:30N 49°58' W 004°26'611.4
2017-Aug-09 13:00N 49°56' W 004°35'611.2
2017-Aug-09 12:29N 49°55' W 004°44'811.1
2017-Aug-09 11:44N 49°54' W 004°56'311.2
2017-Aug-09 11:26N 49°54' W 005°02'44 9.0
2017-Aug-09 06:31N 50°18' W 005°59'5 9.8
2017-Aug-09 06:04N 50°22' W 005°56'110.1
2017-Aug-09 06:00N 50°22' W 005°55'510.2
2017-Aug-09 05:30N 50°26' W 005°49'510.2
2017-Aug-09 05:00N 50°29' W 005°43'510.4
2017-Aug-09 04:31N 50°32' W 005°36'510.5
2017-Aug-09 04:01N 50°35' W 005°30'510.6
2017-Aug-09 03:31N 50°39' W 005°24'510.8
2017-Aug-09 03:01N 50°42' W 005°17'510.9
2017-Aug-09 02:31N 50°46' W 005°10'611.3
2017-Aug-09 02:01N 50°49' W 005°04'611.5
2017-Aug-09 01:30N 50°53' W 004°56'611.8
2017-Aug-09 01:00N 50°57' W 004°49'612.0
2017-Aug-09 00:31N 51°01' W 004°42'612.8
2017-Aug-09 00:00N 51°05' W 004°34'713.0
2017-Aug-08 23:30N 51°09' W 004°26'713.9
2017-Aug-08 22:58N 51°14' W 004°17'714.3
2017-Aug-08 22:29N 51°16' W 004°07'714.9
2017-Aug-08 21:59N 51°18' W 003°55'2914.3
2017-Aug-08 19:57N 51°24' W 003°10'612.0
2017-Aug-08 19:27N 51°29' W 003°04'510.5
2017-Aug-08 19:00N 51°32' W 002°58'1 2.5
2017-Aug-08 18:24N 51°33' W 002°59'0 0.4
2017-Aug-08 17:50N 51°33' W 002°59'0 0.0
2017-Aug-08 15:28N 51°33' W 002°59'0 0.0
2017-Aug-08 14:58N 51°33' W 002°59'0 0.0
2017-Aug-08 14:22N 51°33' W 002°59'0 0.0
2017-Aug-08 13:58N 51°33' W 002°59'0 0.0
2017-Aug-08 13:22N 51°33' W 002°59'0 0.0
2017-Aug-08 08:10N 51°33' W 002°59'0 0.0
2017-Aug-08 07:52N 51°33' W 002°59'0 0.0
2017-Aug-08 07:28N 51°33' W 002°59'  

Dump ship's entire track history